createdAt,value
2017-10-23T00:02:04.983Z,66.30
2017-10-23T00:04:32.498Z,66.00
2017-10-23T00:07:00.015Z,66.61
2017-10-23T00:09:27.574Z,66.62
2017-10-23T00:11:55.629Z,66.57
2017-10-23T00:14:23.151Z,65.94
2017-10-23T00:16:50.714Z,64.99
2017-10-23T00:19:18.269Z,66.20
2017-10-23T00:21:45.805Z,65.41
2017-10-23T00:24:13.508Z,64.38
2017-10-23T00:26:41.014Z,64.71
2017-10-23T00:29:09.054Z,64.88
2017-10-23T00:31:37.534Z,64.42
2017-10-23T00:34:05.094Z,65.37
2017-10-23T00:36:32.614Z,65.18
2017-10-23T00:39:00.294Z,65.56
2017-10-23T00:41:27.813Z,65.79
2017-10-23T00:43:55.330Z,65.04
2017-10-23T00:46:23.076Z,64.90
2017-10-23T00:48:50.600Z,65.77
2017-10-23T00:51:18.110Z,65.25
2017-10-23T00:53:45.819Z,65.29
2017-10-23T00:56:13.336Z,65.65
2017-10-23T00:58:40.855Z,67.28
2017-10-23T01:01:08.439Z,67.53
2017-10-23T01:03:35.955Z,67.65
2017-10-23T01:06:03.476Z,68.54
2017-10-23T01:08:31.210Z,67.71
2017-10-23T01:10:58.732Z,67.85
2017-10-23T01:13:26.259Z,67.94
2017-10-23T01:15:53.988Z,66.62
2017-10-23T01:18:21.507Z,66.22
2017-10-23T01:20:49.023Z,66.63
2017-10-23T01:23:16.675Z,66.69
2017-10-23T01:25:44.208Z,67.22
2017-10-23T01:28:11.714Z,67.10
2017-10-23T01:30:39.546Z,67.59
2017-10-23T01:33:07.070Z,66.61
2017-10-23T01:35:34.591Z,67.32
2017-10-23T01:38:02.131Z,66.39
2017-10-23T01:40:29.647Z,67.47
2017-10-23T01:42:57.186Z,67.98
2017-10-23T01:45:24.920Z,67.21
2017-10-23T01:47:52.468Z,67.66
2017-10-23T01:50:19.988Z,67.76
2017-10-23T01:52:47.597Z,67.65
2017-10-23T01:55:15.112Z,68.25
2017-10-23T01:57:42.633Z,68.09
2017-10-23T02:00:10.525Z,67.46
2017-10-23T02:02:38.042Z,67.23
2017-10-23T02:05:05.567Z,66.20
2017-10-23T02:07:33.334Z,66.34
2017-10-23T02:10:00.856Z,66.45
2017-10-23T02:12:28.379Z,66.13
2017-10-23T02:14:55.950Z,65.82
2017-10-23T02:17:23.471Z,66.17
2017-10-23T02:19:50.996Z,65.64
2017-10-23T02:22:19.005Z,66.24
2017-10-23T02:24:46.522Z,66.47
2017-10-23T02:27:14.043Z,65.89
2017-10-23T02:29:41.599Z,66.23
2017-10-23T02:32:09.116Z,65.81
2017-10-23T02:34:36.638Z,65.52
2017-10-23T02:37:04.359Z,65.51
2017-10-23T02:39:31.877Z,64.97
2017-10-23T02:41:59.399Z,65.31
2017-10-23T02:44:26.959Z,64.90
2017-10-23T02:46:54.478Z,64.78
2017-10-23T02:49:22.000Z,64.35
2017-10-23T02:51:49.711Z,64.66
2017-10-23T02:54:17.227Z,65.40
2017-10-23T02:56:44.755Z,65.25
2017-10-23T02:59:12.495Z,66.67
2017-10-23T03:01:40.016Z,66.88
2017-10-23T03:04:07.542Z,66.33
2017-10-23T03:06:35.481Z,67.03
2017-10-23T03:09:03.004Z,67.27
2017-10-23T03:11:30.571Z,66.40
2017-10-23T03:13:58.355Z,67.26
2017-10-23T03:16:25.890Z,67.40
2017-10-23T03:18:53.423Z,67.11
2017-10-23T03:21:24.416Z,66.52
2017-10-23T03:23:51.935Z,66.57
2017-10-23T03:26:19.455Z,67.83
2017-10-23T03:28:47.377Z,67.06
2017-10-23T03:31:14.913Z,66.68
2017-10-23T03:33:42.422Z,67.56
2017-10-23T03:36:10.221Z,67.60
2017-10-23T03:38:37.731Z,67.50
2017-10-23T03:41:05.254Z,67.52
2017-10-23T03:43:32.824Z,67.22
2017-10-23T03:46:00.340Z,68.23
2017-10-23T03:48:27.855Z,67.60
2017-10-23T03:50:55.532Z,67.46
2017-10-23T03:53:23.042Z,67.65
2017-10-23T03:55:50.560Z,67.28
2017-10-23T03:58:18.116Z,66.61
2017-10-23T04:00:45.623Z,67.44
2017-10-23T04:03:13.148Z,67.11
2017-10-23T04:05:40.708Z,67.86
2017-10-23T04:08:08.222Z,67.65
2017-10-23T04:10:35.746Z,68.31
2017-10-23T04:13:03.312Z,67.85
2017-10-23T04:15:30.843Z,67.44
2017-10-23T04:17:58.366Z,67.21
2017-10-23T04:20:25.910Z,66.79
2017-10-23T04:22:53.451Z,67.52
2017-10-23T04:25:21.074Z,67.03
2017-10-23T04:27:48.619Z,67.01
2017-10-23T04:30:16.130Z,67.25
2017-10-23T04:32:43.639Z,66.84
2017-10-23T04:35:11.410Z,67.01
2017-10-23T04:37:38.923Z,67.18
2017-10-23T04:40:06.436Z,66.27
2017-10-23T04:42:34.119Z,67.46
2017-10-23T04:45:01.635Z,66.77
2017-10-23T04:47:29.148Z,66.08
2017-10-23T04:49:56.852Z,66.76
2017-10-23T04:52:31.445Z,66.09
2017-10-23T04:54:59.352Z,66.51
2017-10-23T04:57:26.871Z,66.05
2017-10-23T04:59:54.396Z,65.88
2017-10-23T05:02:22.964Z,65.78
2017-10-23T05:04:50.485Z,65.33
2017-10-23T05:07:18.004Z,65.02
2017-10-23T05:09:47.066Z,65.57
2017-10-23T05:12:14.630Z,65.32
2017-10-23T05:14:42.185Z,65.13
2017-10-23T05:17:09.744Z,65.02
2017-10-23T05:19:37.260Z,64.85
2017-10-23T05:22:04.779Z,64.89
2017-10-23T05:24:33.334Z,64.51
2017-10-23T05:27:00.882Z,64.36
2017-10-23T05:29:28.407Z,64.81
2017-10-23T05:31:55.986Z,65.29
2017-10-23T05:34:23.503Z,65.12
2017-10-23T05:36:51.025Z,64.92
2017-10-23T05:39:18.679Z,65.03
2017-10-23T05:41:46.198Z,65.06
2017-10-23T05:44:13.736Z,65.02
2017-10-23T05:46:41.296Z,65.18
2017-10-23T05:49:08.819Z,66.45
2017-10-23T05:51:36.352Z,66.19
2017-10-23T05:54:03.898Z,66.26
2017-10-23T05:56:31.409Z,66.03
2017-10-23T05:58:58.971Z,66.71
2017-10-23T06:01:26.562Z,67.31
2017-10-23T06:03:54.075Z,67.09
2017-10-23T06:06:21.595Z,66.85
2017-10-23T06:08:49.155Z,66.97
2017-10-23T06:11:16.676Z,67.20
2017-10-23T06:13:44.224Z,67.20
2017-10-23T06:16:11.984Z,67.00
2017-10-23T06:18:39.490Z,66.55
2017-10-23T06:21:07.092Z,66.63
2017-10-23T06:23:34.687Z,66.60
2017-10-23T06:26:02.220Z,66.44
2017-10-23T06:28:29.779Z,66.51
2017-10-23T06:30:57.535Z,65.46
2017-10-23T06:33:25.052Z,65.41
2017-10-23T06:35:52.572Z,65.97
2017-10-23T06:38:20.502Z,65.46
2017-10-23T06:40:48.027Z,66.22
2017-10-23T06:43:15.553Z,65.65
2017-10-23T06:45:43.307Z,65.97
2017-10-23T06:48:10.868Z,64.62
2017-10-23T06:50:39.214Z,63.93
2017-10-23T06:53:06.806Z,63.84
2017-10-23T06:55:34.327Z,64.57
2017-10-23T06:58:01.843Z,64.12
2017-10-23T07:00:29.585Z,63.05
2017-10-23T07:02:57.100Z,63.22
2017-10-23T07:05:24.630Z,62.71
2017-10-23T07:07:52.261Z,62.69
2017-10-23T07:10:19.821Z,62.74
2017-10-23T07:12:47.371Z,61.33
2017-10-23T07:15:15.123Z,60.46
2017-10-23T07:17:42.660Z,60.02
2017-10-23T07:20:10.181Z,60.41
2017-10-23T07:22:37.962Z,60.55
2017-10-23T07:25:05.482Z,59.92
2017-10-23T07:27:33.041Z,59.69
2017-10-23T07:30:00.806Z,59.06
2017-10-23T07:32:28.371Z,58.37
2017-10-23T07:34:55.923Z,58.91
2017-10-23T07:37:23.459Z,58.24
2017-10-23T07:39:50.980Z,59.06
2017-10-23T07:42:18.499Z,58.97
2017-10-23T07:44:46.261Z,60.19
2017-10-23T07:47:13.922Z,59.26
2017-10-23T07:49:41.439Z,58.51
2017-10-23T07:52:09.042Z,58.59
2017-10-23T07:54:36.601Z,58.52
2017-10-23T07:57:04.161Z,59.12
2017-10-23T07:59:31.820Z,58.26
2017-10-23T08:01:59.382Z,57.78
2017-10-23T08:04:26.940Z,58.19
2017-10-23T08:06:54.503Z,57.18
2017-10-23T08:09:22.057Z,57.69
2017-10-23T08:11:49.642Z,57.33
2017-10-23T08:14:17.379Z,56.81
2017-10-23T08:16:44.942Z,56.97
2017-10-23T08:19:12.499Z,56.40
2017-10-23T08:21:40.347Z,56.33
2017-10-23T08:24:08.146Z,56.14
2017-10-23T08:26:35.688Z,55.24
2017-10-23T08:29:03.392Z,55.02
2017-10-23T08:31:30.915Z,54.63
2017-10-23T08:33:58.480Z,55.70
2017-10-23T08:36:26.129Z,55.45
2017-10-23T08:38:53.687Z,55.01
2017-10-23T08:41:21.247Z,56.08
2017-10-23T08:43:48.804Z,54.52
2017-10-23T08:46:16.315Z,54.62
2017-10-23T08:48:43.839Z,54.10
2017-10-23T08:51:11.585Z,53.34
2017-10-23T08:53:39.367Z,51.88
2017-10-23T08:56:06.909Z,52.36
2017-10-23T08:58:34.466Z,53.28
2017-10-23T09:01:02.027Z,52.60
2017-10-23T09:03:29.585Z,50.94
2017-10-23T09:05:57.279Z,50.32
2017-10-23T09:08:24.807Z,47.67
2017-10-23T09:10:52.327Z,43.81
2017-10-23T09:13:19.924Z,41.42
2017-10-23T09:15:47.485Z,41.46
2017-10-23T09:18:15.003Z,39.17
2017-10-23T09:20:42.687Z,40.87
2017-10-23T09:23:10.280Z,41.06
2017-10-23T09:25:37.823Z,43.30
2017-10-23T09:28:05.590Z,43.81
2017-10-23T09:30:33.146Z,44.13
2017-10-23T09:33:00.683Z,43.94
2017-10-23T09:35:28.352Z,44.67
2017-10-23T09:37:55.872Z,45.42
2017-10-23T09:40:23.390Z,47.66
2017-10-23T09:42:51.124Z,49.30
2017-10-23T09:45:18.651Z,50.12
2017-10-23T09:47:46.167Z,51.11
2017-10-23T09:50:13.925Z,52.74
2017-10-23T09:52:41.484Z,52.14
2017-10-23T09:55:09.044Z,52.59
2017-10-23T09:57:36.808Z,52.03
2017-10-23T10:00:04.366Z,51.88
2017-10-23T10:02:31.925Z,51.53
2017-10-23T10:04:59.505Z,52.23
2017-10-23T10:07:27.030Z,52.37
2017-10-23T10:09:54.551Z,52.62
2017-10-23T10:12:22.252Z,51.98
2017-10-23T10:14:49.775Z,50.96
2017-10-23T10:17:18.284Z,50.16
2017-10-23T10:19:46.080Z,50.14
2017-10-23T10:22:13.607Z,49.97
2017-10-23T10:24:41.143Z,50.00
2017-10-23T10:27:08.723Z,49.99
2017-10-23T10:29:36.243Z,49.75
2017-10-23T10:32:03.756Z,49.84
2017-10-23T10:34:31.627Z,50.74
2017-10-23T10:36:59.187Z,50.28
2017-10-23T10:39:26.716Z,50.49
2017-10-23T10:41:54.804Z,50.26
2017-10-23T10:44:22.376Z,49.25
2017-10-23T10:46:49.935Z,49.47
2017-10-23T10:49:17.680Z,49.10
2017-10-23T10:51:45.206Z,48.31
2017-10-23T10:54:12.724Z,47.03
2017-10-23T10:56:40.478Z,46.36
2017-10-23T10:59:08.953Z,46.98
2017-10-23T11:01:36.475Z,46.51
2017-10-23T11:04:04.270Z,45.93
2017-10-23T11:06:31.791Z,45.79
2017-10-23T11:08:59.318Z,45.81
2017-10-23T11:11:27.044Z,45.65
2017-10-23T11:13:54.564Z,45.16
2017-10-23T11:16:22.084Z,44.15
2017-10-23T11:18:49.654Z,44.49
2017-10-23T11:21:17.196Z,44.26
2017-10-23T11:23:44.755Z,44.04
2017-10-23T11:26:12.723Z,44.93
2017-10-23T11:28:40.232Z,44.93
2017-10-23T11:31:07.750Z,44.66
2017-10-23T11:33:35.488Z,43.94
2017-10-23T11:36:03.004Z,43.74
2017-10-23T11:38:30.622Z,43.12
2017-10-23T11:40:58.396Z,43.35
2017-10-23T11:43:25.945Z,42.30
2017-10-23T11:45:53.503Z,41.85
2017-10-23T11:48:21.247Z,41.30
2017-10-23T11:50:48.827Z,41.04
2017-10-23T11:53:16.344Z,41.52
2017-10-23T11:55:43.945Z,42.08
2017-10-23T11:58:11.505Z,42.38
2017-10-23T12:00:39.167Z,43.36
2017-10-23T12:03:06.826Z,44.09
2017-10-23T12:05:34.352Z,43.53
2017-10-23T12:08:01.867Z,44.09
2017-10-23T12:10:31.451Z,44.17
2017-10-23T12:13:00.750Z,44.23
2017-10-23T12:15:28.310Z,43.17
2017-10-23T12:17:56.051Z,43.08
2017-10-23T12:20:23.568Z,42.77
2017-10-23T12:22:52.031Z,42.78
2017-10-23T12:25:19.960Z,41.50
2017-10-23T12:27:47.497Z,40.87
2017-10-23T12:30:15.021Z,40.23
2017-10-23T12:32:42.762Z,39.76
2017-10-23T12:35:10.318Z,40.32
2017-10-23T12:37:37.831Z,41.76
2017-10-23T12:40:05.725Z,42.27
2017-10-23T12:42:33.239Z,42.36
2017-10-23T12:45:00.755Z,43.17
2017-10-23T12:47:28.323Z,41.94
2017-10-23T12:49:55.830Z,42.69
2017-10-23T12:52:23.372Z,41.93
2017-10-23T12:54:50.996Z,40.11
2017-10-23T12:57:18.508Z,39.27
2017-10-23T12:59:46.222Z,38.61
2017-10-23T13:02:13.979Z,38.17
2017-10-23T13:04:41.487Z,39.04
2017-10-23T13:07:09.008Z,40.04
2017-10-23T13:09:36.700Z,41.28
2017-10-23T13:12:04.234Z,41.68
2017-10-23T13:14:31.752Z,41.55
2017-10-23T13:16:59.427Z,41.92
2017-10-23T13:19:26.940Z,41.79
2017-10-23T13:21:55.603Z,42.22
2017-10-23T13:24:23.184Z,42.93
2017-10-23T13:26:50.719Z,42.91
2017-10-23T13:29:18.270Z,42.18
2017-10-23T13:31:46.027Z,43.70
2017-10-23T13:34:13.600Z,45.05
2017-10-23T13:36:41.138Z,44.28
2017-10-23T13:39:09.210Z,44.12
2017-10-23T13:41:36.768Z,44.51
2017-10-23T13:44:04.278Z,45.27
2017-10-23T13:46:32.197Z,45.21
2017-10-23T13:48:59.770Z,45.03
2017-10-23T13:51:27.312Z,45.37
2017-10-23T13:53:55.155Z,45.65
2017-10-23T13:56:22.737Z,45.94
2017-10-23T13:58:50.297Z,47.30
2017-10-23T14:01:17.938Z,47.18
2017-10-23T14:03:45.447Z,46.90
2017-10-23T14:06:12.976Z,46.69
2017-10-23T14:08:41.042Z,46.46
2017-10-23T14:11:09.690Z,47.16
2017-10-23T14:13:37.203Z,47.05
2017-10-23T14:16:04.932Z,46.21
2017-10-23T14:18:33.467Z,45.16
2017-10-23T14:21:01.020Z,45.51
2017-10-23T14:23:28.959Z,46.01
2017-10-23T14:25:56.480Z,46.88
2017-10-23T14:28:24.001Z,48.25
2017-10-23T14:30:51.825Z,49.60
2017-10-23T14:33:19.503Z,49.92
2017-10-23T14:35:47.168Z,49.71
2017-10-23T14:38:14.735Z,49.38
2017-10-23T14:40:42.251Z,49.23
2017-10-23T14:43:09.845Z,48.96
2017-10-23T14:45:37.400Z,48.80
2017-10-23T14:48:05.077Z,49.64
2017-10-23T14:50:32.839Z,49.67
2017-10-23T14:53:00.795Z,50.03
2017-10-23T14:55:28.764Z,49.73
2017-10-23T14:57:56.448Z,49.51
2017-10-23T15:00:24.139Z,50.92
2017-10-23T15:02:51.791Z,50.62
2017-10-23T15:05:19.508Z,51.39
2017-10-23T15:07:47.312Z,51.80
2017-10-23T15:10:15.056Z,51.14
2017-10-23T15:12:42.619Z,52.56
2017-10-23T15:15:10.363Z,52.34
2017-10-23T15:17:37.967Z,52.00
2017-10-23T15:20:05.569Z,51.19
2017-10-23T15:22:33.346Z,51.29
2017-10-23T15:25:00.855Z,51.33
2017-10-23T15:27:28.379Z,51.99
2017-10-23T15:29:56.108Z,52.31
2017-10-23T15:32:23.638Z,51.87
2017-10-23T15:34:51.244Z,52.02
2017-10-23T15:37:18.937Z,52.69
2017-10-23T15:39:46.490Z,53.07
2017-10-23T15:42:14.248Z,52.38
2017-10-23T15:44:42.194Z,52.78
2017-10-23T15:47:09.743Z,53.28
2017-10-23T15:49:37.267Z,53.07
2017-10-23T15:52:04.959Z,53.45
2017-10-23T15:54:32.483Z,53.46
2017-10-23T15:57:00.081Z,53.39
2017-10-23T15:59:27.675Z,54.24
2017-10-23T16:01:55.215Z,54.60
2017-10-23T16:04:22.773Z,56.13
2017-10-23T16:06:50.516Z,57.02
2017-10-23T16:09:18.095Z,59.23
2017-10-23T16:11:45.620Z,60.87
2017-10-23T16:14:14.135Z,61.87
2017-10-23T16:16:41.716Z,62.58
2017-10-23T16:19:09.252Z,63.91
2017-10-23T16:21:36.843Z,63.41
2017-10-23T16:24:04.373Z,63.12
2017-10-23T16:26:31.940Z,63.34
2017-10-23T16:28:59.797Z,63.51
2017-10-23T16:31:27.357Z,62.79
2017-10-23T16:33:54.977Z,63.29
2017-10-23T16:36:22.616Z,64.09
2017-10-23T16:38:50.139Z,63.32
2017-10-23T16:41:17.679Z,63.68
2017-10-23T16:43:45.358Z,64.16
2017-10-23T16:46:12.917Z,63.68
2017-10-23T16:48:40.477Z,62.79
2017-10-23T16:51:08.344Z,62.86
2017-10-23T16:53:35.902Z,62.52
2017-10-23T16:56:03.460Z,62.68
2017-10-23T16:58:31.328Z,62.55
2017-10-23T17:00:58.989Z,63.00
2017-10-23T17:03:26.775Z,62.92
2017-10-23T17:05:54.721Z,63.20
2017-10-23T17:08:22.293Z,63.62
2017-10-23T17:10:52.093Z,63.07
2017-10-23T17:13:20.142Z,63.82
2017-10-23T17:15:48.492Z,63.74
2017-10-23T17:18:16.408Z,63.25
2017-10-23T17:20:44.490Z,63.66
2017-10-23T17:23:12.242Z,63.51
2017-10-23T17:25:40.110Z,63.75
2017-10-23T17:28:08.431Z,64.30
2017-10-23T17:30:38.070Z,64.43
2017-10-23T17:33:06.064Z,64.11
2017-10-23T17:35:34.040Z,64.18
2017-10-23T17:38:02.207Z,64.51
2017-10-23T17:40:29.978Z,65.83
2017-10-23T17:42:57.732Z,64.97
2017-10-23T17:45:25.427Z,65.35
2017-10-23T17:47:53.261Z,65.05
2017-10-23T17:50:21.548Z,64.51
2017-10-23T17:52:49.322Z,63.77
2017-10-23T17:55:17.209Z,64.02
2017-10-23T17:57:45.240Z,64.00
2017-10-23T18:00:13.737Z,64.21
2017-10-23T18:02:41.569Z,64.57
2017-10-23T18:05:09.607Z,64.39
2017-10-23T18:07:37.526Z,63.92
2017-10-23T18:10:05.285Z,63.73
2017-10-23T18:12:32.998Z,64.55
2017-10-23T18:15:01.044Z,64.09
2017-10-23T18:17:28.796Z,64.04
2017-10-23T18:19:56.541Z,63.34
2017-10-23T18:22:24.578Z,63.52
2017-10-23T18:24:52.690Z,64.20
2017-10-23T18:27:20.575Z,63.35
2017-10-23T18:29:48.324Z,62.99
2017-10-23T18:32:16.085Z,63.30
2017-10-23T18:34:43.951Z,63.82
2017-10-23T18:37:11.713Z,63.96
2017-10-23T18:39:39.516Z,63.30
2017-10-23T18:42:07.345Z,63.61
2017-10-23T18:44:35.322Z,64.63
2017-10-23T18:47:03.096Z,64.82
2017-10-23T18:49:30.998Z,64.58
2017-10-23T18:51:58.829Z,63.77
2017-10-23T18:54:27.720Z,65.15
2017-10-23T18:56:55.874Z,64.91
2017-10-23T18:59:23.739Z,65.01
2017-10-23T19:01:52.345Z,65.05
2017-10-23T19:04:20.394Z,65.85
2017-10-23T19:06:48.260Z,65.43
2017-10-23T19:09:16.126Z,65.55
2017-10-23T19:11:44.215Z,65.08
2017-10-23T19:14:12.378Z,64.57
2017-10-23T19:16:40.236Z,65.76
2017-10-23T19:19:08.186Z,65.66
2017-10-23T19:21:36.255Z,64.90
2017-10-23T19:24:04.144Z,64.88
2017-10-23T19:26:32.343Z,64.82
2017-10-23T19:29:01.027Z,63.94
2017-10-23T19:31:28.983Z,63.93
2017-10-23T19:33:57.877Z,65.22
2017-10-23T19:36:25.727Z,63.98
2017-10-23T19:38:53.594Z,64.68
2017-10-23T19:41:21.476Z,64.07
2017-10-23T19:43:49.226Z,65.26
2017-10-23T19:46:18.034Z,63.96
2017-10-23T19:48:45.981Z,62.94
2017-10-23T19:51:13.949Z,61.95
2017-10-23T19:53:41.770Z,62.47
2017-10-23T19:56:09.963Z,62.82
2017-10-23T19:58:37.788Z,62.23
2017-10-23T20:01:06.233Z,62.32
2017-10-23T20:03:34.920Z,62.73
2017-10-23T20:06:02.684Z,62.20
2017-10-23T20:08:30.447Z,61.55
2017-10-23T20:10:58.314Z,62.39
2017-10-23T20:13:25.997Z,63.13
2017-10-23T20:15:53.768Z,63.12
2017-10-23T20:18:22.102Z,63.55
2017-10-23T20:20:49.834Z,62.98
2017-10-23T20:23:17.672Z,63.77
2017-10-23T20:25:46.049Z,64.46
2017-10-23T20:28:13.707Z,64.87
2017-10-23T20:30:41.559Z,64.69
2017-10-23T20:33:09.419Z,64.24
2017-10-23T20:35:36.977Z,63.81
2017-10-23T20:38:05.577Z,64.39
2017-10-23T20:40:33.179Z,63.64
2017-10-23T20:43:00.885Z,63.90
2017-10-23T20:45:28.442Z,64.63
2017-10-23T20:47:56.245Z,64.34
2017-10-23T20:50:24.665Z,64.29
2017-10-23T20:52:52.946Z,63.97
2017-10-23T20:55:20.624Z,63.73
2017-10-23T20:57:49.104Z,64.49
2017-10-23T21:00:16.615Z,65.72
2017-10-23T21:02:44.307Z,65.48
2017-10-23T21:05:11.823Z,64.89
2017-10-23T21:07:39.423Z,64.73
2017-10-23T21:10:07.399Z,64.32
2017-10-23T21:12:34.973Z,65.35
2017-10-23T21:15:02.511Z,65.56
2017-10-23T21:17:30.392Z,64.84
2017-10-23T21:19:57.906Z,63.95
2017-10-23T21:22:25.452Z,64.49
2017-10-23T21:24:53.074Z,65.63
2017-10-23T21:27:20.603Z,65.22
2017-10-23T21:29:48.213Z,65.41
2017-10-23T21:32:16.059Z,65.88
2017-10-23T21:34:43.618Z,65.37
2017-10-23T21:37:11.191Z,65.44
2017-10-23T21:39:38.941Z,66.07
2017-10-23T21:42:06.919Z,65.50
2017-10-23T21:44:34.468Z,64.42
2017-10-23T21:47:10.915Z,64.53
2017-10-23T21:49:38.443Z,65.50
2017-10-23T21:52:05.963Z,65.76
2017-10-23T21:54:33.695Z,64.53
2017-10-23T21:57:01.216Z,64.86
2017-10-23T21:59:28.742Z,64.67
2017-10-23T22:01:56.302Z,64.28
2017-10-23T22:04:23.832Z,65.38
2017-10-23T22:06:51.353Z,65.37
2017-10-23T22:09:18.970Z,64.99
2017-10-23T22:11:46.528Z,65.12
2017-10-23T22:14:14.087Z,65.87
2017-10-23T22:16:42.361Z,66.41
2017-10-23T22:19:09.873Z,66.00
2017-10-23T22:21:37.399Z,65.00
2017-10-23T22:24:04.976Z,65.24
2017-10-23T22:26:32.502Z,64.62
2017-10-23T22:29:00.078Z,66.24
2017-10-23T22:31:27.810Z,65.66
2017-10-23T22:33:55.327Z,66.10
2017-10-23T22:36:22.851Z,66.45
2017-10-23T22:38:50.415Z,65.86
2017-10-23T22:41:17.964Z,64.72
2017-10-23T22:43:45.512Z,65.06
2017-10-23T22:46:13.454Z,66.69
2017-10-23T22:48:40.973Z,65.12
2017-10-23T22:51:08.491Z,64.70
2017-10-23T22:53:36.055Z,64.07
2017-10-23T22:56:03.620Z,64.08
2017-10-23T22:58:31.175Z,64.89
2017-10-23T23:00:59.122Z,65.37
2017-10-23T23:03:26.641Z,64.75
2017-10-23T23:05:54.184Z,65.00
2017-10-23T23:08:21.831Z,64.91
2017-10-23T23:10:49.348Z,66.46
2017-10-23T23:13:16.865Z,65.69
2017-10-23T23:15:44.423Z,65.56
2017-10-23T23:18:11.947Z,66.27
2017-10-23T23:20:39.468Z,65.55
2017-10-23T23:23:07.276Z,66.10
2017-10-23T23:25:34.835Z,66.15
2017-10-23T23:28:02.353Z,65.75
2017-10-23T23:30:30.260Z,65.53
2017-10-23T23:32:57.775Z,65.63
2017-10-23T23:35:25.299Z,65.99
2017-10-23T23:37:53.023Z,65.32
2017-10-23T23:40:20.540Z,64.52
2017-10-23T23:42:48.058Z,64.92
2017-10-23T23:45:15.620Z,64.92
2017-10-23T23:47:43.175Z,65.00
2017-10-23T23:50:10.733Z,66.05
2017-10-23T23:52:38.887Z,67.38
2017-10-23T23:55:06.411Z,68.07
2017-10-23T23:57:33.932Z,66.57
